Bookmark and Share
Track history (hours):
 

Taurus

More information available from US FCC via Universal Licensing System and Coast Guard Vessel Documentation Center.

Last reported at 2014-Apr-18 01:32 UTC. Time now 2014-Apr-19 05:12 UTC.
Position N 37°48' W 122°24'.

Length 35 m.

Type: Passenger vessel. MMSI: 367436230.

NotesDate/timePositionNaut miles runAvg speedWind from/ knotsBaromVisibWave heightAir tempDewpointWater temp
2014-Apr-18 01:32N 37°48' W 122°24'2 1.9
2014-Apr-18 00:34N 37°48' W 122°21'2 1.9
2014-Apr-17 23:34N 37°48' W 122°24'0 0.0
2014-Apr-17 19:15N 37°48' W 122°24'0 0.6
2014-Apr-17 18:33N 37°48' W 122°24'5 5.3
2014-Apr-17 17:33N 37°48' W 122°17'6 6.4
2014-Apr-17 16:33N 37°49' W 122°25'7 6.7
2014-Apr-17 15:34N 37°43' W 122°21'2 1.8
2014-Apr-17 14:34N 37°45' W 122°21'4 4.2
2014-Apr-17 13:33N 37°48' W 122°17'  
2014-Apr-15 02:34N 37°48' W 122°24'0 0.4
2014-Apr-15 01:34N 37°48' W 122°24'0 0.0
2014-Apr-15 00:34N 37°48' W 122°24'0 0.0
2014-Apr-14 23:34N 37°48' W 122°24'0 0.0
2014-Apr-14 22:34N 37°48' W 122°24'0 0.4
2014-Apr-14 21:34N 37°48' W 122°24'0 0.0
2014-Apr-14 20:32N 37°48' W 122°24'0 0.1
2014-Apr-14 19:34N 37°48' W 122°24'0 0.0
2014-Apr-14 18:33N 37°48' W 122°24'0 0.0
2014-Apr-14 17:33N 37°48' W 122°24'0 0.0
2014-Apr-14 16:33N 37°48' W 122°24'0 0.0
2014-Apr-14 15:33N 37°48' W 122°24'8 7.7
2014-Apr-14 14:34N 37°44' W 122°15'0 0.0
2014-Apr-14 13:34N 37°44' W 122°16'8 4.2
2014-Apr-14 11:33N 37°49' W 122°25'0 0.0
2014-Apr-12 17:15N 37°49' W 122°25'0 0.0
2014-Apr-12 03:27N 37°49' W 122°25'1 1.5
2014-Apr-12 02:33N 37°48' W 122°24'0 0.0
2014-Apr-12 01:33N 37°48' W 122°24'0 0.0
2014-Apr-12 00:33N 37°48' W 122°24'0 0.0
2014-Apr-11 23:33N 37°48' W 122°24'1 1.3
2014-Apr-11 22:33N 37°49' W 122°25'0 0.0
2014-Apr-11 21:33N 37°49' W 122°25'0 0.0
2014-Apr-11 20:33N 37°49' W 122°25'0 0.0
2014-Apr-11 19:33N 37°49' W 122°25'0 0.0
2014-Apr-11 18:33N 37°49' W 122°25'0 0.0
2014-Apr-11 17:33N 37°49' W 122°25'0 0.0
2014-Apr-11 16:31N 37°49' W 122°25'9 8.9
2014-Apr-11 15:33N 37°44' W 122°15'0 0.0
2014-Apr-11 14:34N 37°44' W 122°16'0 0.1
2014-Apr-11 13:33N 37°44' W 122°16'8 8.5
2014-Apr-11 12:33N 37°49' W 122°25'0 0.0
2014-Apr-11 03:33N 37°49' W 122°25'1 1.3
2014-Apr-11 02:33N 37°48' W 122°24'0 0.0
2014-Apr-11 01:33N 37°48' W 122°24'0 0.0
2014-Apr-11 00:33N 37°48' W 122°24'0 0.0
2014-Apr-10 23:33N 37°48' W 122°24'1 1.3
2014-Apr-10 22:33N 37°49' W 122°25'0 0.0
2014-Apr-10 21:33N 37°49' W 122°25'0 0.0
2014-Apr-10 20:33N 37°49' W 122°25'0 0.0
2014-Apr-10 19:33N 37°49' W 122°25'0 0.0
2014-Apr-10 18:33N 37°49' W 122°25'0 0.0
2014-Apr-10 17:33N 37°49' W 122°25'0 0.0
2014-Apr-10 16:33N 37°49' W 122°25'9 8.6
2014-Apr-10 15:33N 37°44' W 122°15'0 0.1
2014-Apr-10 14:34N 37°44' W 122°16'0 0.0
2014-Apr-10 13:33N 37°44' W 122°16'8 8.4
2014-Apr-10 12:33N 37°49' W 122°25'0 0.0
2014-Apr-10 03:28N 37°49' W 122°25'1 1.4
2014-Apr-10 02:33N 37°48' W 122°24'0 0.0
2014-Apr-10 01:33N 37°48' W 122°24'0 0.0
2014-Apr-10 00:33N 37°48' W 122°24'0 0.0
2014-Apr-09 23:33N 37°48' W 122°24'1 1.3
2014-Apr-09 22:33N 37°49' W 122°25'0 0.0
2014-Apr-09 21:33N 37°49' W 122°25'0 0.0
2014-Apr-09 20:33N 37°49' W 122°25'0 0.0
2014-Apr-09 19:33N 37°49' W 122°25'0 0.0
2014-Apr-09 18:33N 37°49' W 122°25'0 0.0
2014-Apr-09 17:33N 37°49' W 122°25'0 0.0
2014-Apr-09 16:33N 37°49' W 122°25'8 8.5
2014-Apr-09 15:33N 37°44' W 122°16'0 0.0
2014-Apr-09 14:33N 37°44' W 122°16'0 0.2
2014-Apr-09 13:34N 37°44' W 122°16'8 8.3
2014-Apr-09 12:33N 37°49' W 122°25'0 0.0
2014-Apr-09 03:31N 37°49' W 122°25'1 1.3
2014-Apr-09 02:33N 37°48' W 122°24'0 0.0
2014-Apr-09 01:33N 37°48' W 122°24'0 0.0
2014-Apr-09 00:33N 37°48' W 122°24'0 0.0
2014-Apr-08 23:34N 37°48' W 122°24'1 1.3
2014-Apr-08 22:33N 37°49' W 122°25'0 0.0
2014-Apr-08 21:33N 37°49' W 122°25'0 0.0
2014-Apr-08 20:33N 37°49' W 122°25'0 0.0
2014-Apr-08 19:33N 37°49' W 122°25'0 0.0
2014-Apr-08 18:33N 37°49' W 122°25'0 0.0
2014-Apr-08 17:34N 37°49' W 122°25'0 0.0
2014-Apr-08 16:33N 37°49' W 122°25'9 8.5
2014-Apr-08 15:34N 37°44' W 122°15'0 0.0
2014-Apr-08 14:33N 37°44' W 122°16'0 0.0
2014-Apr-08 13:34N 37°44' W 122°15'9 8.5
2014-Apr-08 12:33N 37°49' W 122°25'0 0.0
2014-Apr-08 03:25N 37°49' W 122°25'1 1.4
2014-Apr-08 02:33N 37°48' W 122°24'0 0.1
2014-Apr-08 01:33N 37°48' W 122°24'  

Dump ship's entire track history

sailing weather and tide predictions

Taurus — WDF3127 — position and weather